Time,TemperatureF,DewpointF,PressureIn,WindDirection,WindDirectionDegrees,WindSpeedMPH,WindSpeedGustMPH,Humidity,HourlyPrecipIn,Conditions,Clouds,dailyrainin,SoftwareType,DateUTC
2013-07-01 00:01:00,71.1,68.0,29.83,ENE,68,19.0,21.0,90,0.00,,,0.00,meteohub,2013-07-01 04:01:00,
2013-07-01 00:02:00,71.1,68.0,29.83,ENE,66,19.0,21.0,90,0.00,,,0.00,meteohub,2013-07-01 04:02:00,
2013-07-01 00:07:00,71.1,68.0,29.83,ENE,66,17.0,21.0,90,0.00,,,0.00,meteohub,2013-07-01 04:07:00,
2013-07-01 00:12:00,71.1,68.0,29.83,ENE,68,15.0,21.0,90,0.00,,,0.00,meteohub,2013-07-01 04:12:00,
2013-07-01 00:17:00,71.1,68.0,29.83,ENE,63,17.0,21.0,90,0.00,,,0.00,meteohub,2013-07-01 04:17:00,
2013-07-01 00:22:00,71.2,68.5,29.83,ENE,67,19.0,20.0,91,0.00,,,0.00,meteohub,2013-07-01 04:22:00,
2013-07-01 00:27:00,71.1,68.0,29.83,ENE,76,19.0,20.0,90,0.00,,,0.00,meteohub,2013-07-01 04:27:00,
2013-07-01 00:32:00,71.1,68.0,29.83,ENE,73,19.0,20.0,90,0.00,,,0.00,meteohub,2013-07-01 04:32:00,
2013-07-01 00:37:00,71.1,68.4,29.83,ENE,59,16.0,20.0,91,0.00,,,0.00,meteohub,2013-07-01 04:37:00,
2013-07-01 00:42:00,70.9,68.2,29.83,ENE,65,16.0,20.0,91,0.00,,,0.00,meteohub,2013-07-01 04:42:00,
2013-07-01 00:47:00,71.1,68.5,29.83,ENE,63,19.0,20.0,92,0.00,,,0.00,meteohub,2013-07-01 04:47:00,
2013-07-01 00:52:00,71.1,68.5,29.83,ENE,78,14.0,21.0,92,0.00,,,0.00,meteohub,2013-07-01 04:52:00,
2013-07-01 00:57:00,70.9,68.4,29.83,East,91,12.0,21.0,92,0.00,,,0.00,meteohub,2013-07-01 04:57:00,
2013-07-01 01:02:00,70.5,68.0,29.83,East,87,15.0,21.0,92,0.00,,,0.00,meteohub,2013-07-01 05:02:00,
2013-07-01 01:07:00,70.3,67.8,29.83,East,80,13.0,21.0,92,0.00,,,0.00,meteohub,2013-07-01 05:07:00,
2013-07-01 01:12:00,70.3,68.2,29.83,East,84,13.0,21.0,93,0.00,,,0.00,meteohub,2013-07-01 05:12:00,
2013-07-01 01:17:00,70.2,68.0,29.83,East,86,11.0,16.0,93,0.00,,,0.00,meteohub,2013-07-01 05:17:00,
2013-07-01 01:22:00,70.0,67.8,29.83,East,80,10.0,15.0,93,0.00,,,0.00,meteohub,2013-07-01 05:22:00,
2013-07-01 01:27:00,70.0,68.2,29.83,East,82,14.0,15.0,94,0.00,,,0.00,meteohub,2013-07-01 05:27:00,
2013-07-01 01:32:00,69.8,68.0,29.83,ENE,78,13.0,17.0,94,0.00,,,0.00,meteohub,2013-07-01 05:32:00,
2013-07-01 01:37:00,69.8,68.4,29.83,East,89,13.0,17.0,95,0.00,,,0.00,meteohub,2013-07-01 05:37:00,
2013-07-01 01:42:00,69.6,68.2,29.83,East,85,12.0,17.0,95,0.00,,,0.00,meteohub,2013-07-01 05:42:00,
2013-07-01 01:47:00,69.6,68.2,29.83,ENE,74,14.0,16.0,95,0.00,,,0.00,meteohub,2013-07-01 05:47:00,
2013-07-01 01:52:00,69.6,68.2,29.83,ENE,78,15.0,17.0,95,0.00,,,0.00,meteohub,2013-07-01 05:52:00,
2013-07-01 01:57:00,69.6,68.2,29.83,ENE,74,15.0,18.0,95,0.00,,,0.00,meteohub,2013-07-01 05:57:00,
2013-07-01 02:03:00,69.4,68.0,29.83,East,81,13.0,18.0,95,0.00,,,0.00,meteohub,2013-07-01 06:03:00,
2013-07-01 02:08:00,69.4,68.2,29.83,East,87,12.0,18.0,96,0.00,,,0.00,meteohub,2013-07-01 06:08:00,
2013-07-01 02:13:00,69.4,68.2,29.83,East,84,14.0,17.0,96,0.00,,,0.00,meteohub,2013-07-01 06:13:00,
2013-07-01 02:18:00,69.3,67.8,29.83,East,91,15.0,16.0,95,0.00,,,0.00,meteohub,2013-07-01 06:18:00,
2013-07-01 02:23:00,69.1,67.6,29.83,East,88,12.0,16.0,95,0.00,,,0.00,meteohub,2013-07-01 06:23:00,
2013-07-01 02:28:00,68.9,67.5,29.83,East,84,14.0,15.0,95,0.00,,,0.00,meteohub,2013-07-01 06:28:00,
2013-07-01 02:33:00,69.1,67.6,29.83,East,83,13.0,15.0,95,0.00,,,0.00,meteohub,2013-07-01 06:33:00,
2013-07-01 02:38:00,68.9,67.5,29.82,East,81,12.0,15.0,95,0.00,,,0.00,meteohub,2013-07-01 06:38:00,
2013-07-01 02:43:00,69.1,67.8,29.83,East,79,15.0,15.0,96,0.00,,,0.00,meteohub,2013-07-01 06:43:00,
2013-07-01 02:48:00,69.1,67.8,29.82,ENE,76,12.0,16.0,96,0.00,,,0.00,meteohub,2013-07-01 06:48:00,
2013-07-01 02:53:00,69.4,68.2,29.82,ENE,58,18.0,18.0,96,0.00,,,0.00,meteohub,2013-07-01 06:53:00,
2013-07-01 02:58:00,69.6,68.4,29.82,ENE,64,20.0,20.0,96,0.00,,,0.00,meteohub,2013-07-01 06:58:00,
2013-07-01 03:03:00,69.8,68.9,29.81,ENE,76,21.0,22.0,97,0.00,,,0.00,meteohub,2013-07-01 07:03:00,
2013-07-01 03:09:00,69.8,68.9,29.82,ENE,78,15.0,22.0,97,0.00,,,0.00,meteohub,2013-07-01 07:09:00,
2013-07-01 03:14:00,69.8,68.9,29.82,ENE,77,18.0,22.0,97,0.00,,,0.00,meteohub,2013-07-01 07:14:00,
2013-07-01 03:19:00,69.8,68.9,29.82,ENE,61,21.0,22.0,97,0.00,,,0.00,meteohub,2013-07-01 07:19:00,
2013-07-01 03:24:00,70.0,69.1,29.81,ENE,68,19.0,23.0,97,0.00,,,0.00,meteohub,2013-07-01 07:24:00,
2013-07-01 03:29:00,69.8,68.9,29.81,ENE,63,21.0,24.0,97,0.00,,,0.00,meteohub,2013-07-01 07:29:00,
2013-07-01 03:34:00,69.6,68.4,29.81,ENE,67,21.0,26.0,96,0.00,,,0.00,meteohub,2013-07-01 07:34:00,
2013-07-01 03:39:00,69.6,68.4,29.81,ENE,70,22.0,26.0,96,0.00,,,0.00,meteohub,2013-07-01 07:39:00,
2013-07-01 03:44:00,69.6,68.4,29.81,ENE,64,21.0,26.0,96,0.00,,,0.00,meteohub,2013-07-01 07:44:00,
2013-07-01 03:49:00,69.4,68.2,29.81,ENE,60,24.0,25.0,96,0.00,,,0.00,meteohub,2013-07-01 07:49:00,
2013-07-01 03:54:00,69.4,68.2,29.81,ENE,67,22.0,25.0,96,0.00,,,0.00,meteohub,2013-07-01 07:54:00,
2013-07-01 03:59:00,69.6,68.4,29.81,ENE,59,24.0,27.0,96,0.00,,,0.00,meteohub,2013-07-01 07:59:00,
2013-07-01 04:04:00,69.4,68.2,29.81,ENE,63,21.0,27.0,96,0.00,,,0.00,meteohub,2013-07-01 08:04:00,
2013-07-01 04:09:00,69.4,68.2,29.81,ENE,64,25.0,27.0,96,0.00,,,0.00,meteohub,2013-07-01 08:09:00,
2013-07-01 04:15:00,69.4,68.2,29.81,ENE,66,22.0,28.0,96,0.00,,,0.00,meteohub,2013-07-01 08:15:00,
2013-07-01 04:20:00,69.4,68.2,29.81,ENE,59,25.0,28.0,96,0.00,,,0.00,meteohub,2013-07-01 08:20:00,
2013-07-01 04:25:00,69.4,68.2,29.81,ENE,68,22.0,29.0,96,0.00,,,0.00,meteohub,2013-07-01 08:25:00,
2013-07-01 04:30:00,69.3,67.8,29.82,ENE,70,23.0,29.0,95,0.00,,,0.00,meteohub,2013-07-01 08:30:00,
2013-07-01 04:35:00,69.1,67.6,29.82,ENE,77,24.0,28.0,95,0.00,,,0.00,meteohub,2013-07-01 08:35:00,
2013-07-01 04:40:00,69.1,67.6,29.83,ENE,67,23.0,28.0,95,0.00,,,0.00,meteohub,2013-07-01 08:40:00,
2013-07-01 04:45:00,69.1,67.6,29.83,ENE,69,26.0,28.0,95,0.00,,,0.00,meteohub,2013-07-01 08:45:00,
2013-07-01 04:50:00,69.1,67.8,29.83,ENE,72,21.0,29.0,96,0.00,,,0.00,meteohub,2013-07-01 08:50:00,
2013-07-01 04:55:00,69.1,67.8,29.83,ENE,70,24.0,30.0,96,0.00,,,0.00,meteohub,2013-07-01 08:55:00,
2013-07-01 05:00:00,69.1,68.2,29.83,ENE,61,24.0,30.0,97,0.00,,,0.00,meteohub,2013-07-01 09:00:00,
2013-07-01 05:05:00,69.1,68.2,29.83,ENE,71,23.0,30.0,97,0.00,,,0.00,meteohub,2013-07-01 09:05:00,
2013-07-01 05:10:00,69.1,68.5,29.82,ENE,63,29.0,29.0,98,0.00,,,0.00,meteohub,2013-07-01 09:10:00,
2013-07-01 05:15:00,68.9,68.0,29.83,ENE,58,30.0,31.0,97,0.00,,,0.00,meteohub,2013-07-01 09:15:00,
2013-07-01 05:20:00,68.7,68.2,29.83,ENE,65,26.0,31.0,98,0.00,,,0.00,meteohub,2013-07-01 09:20:00,
2013-07-01 05:26:00,69.1,68.5,29.83,ENE,70,24.0,31.0,98,0.00,,,0.00,meteohub,2013-07-01 09:26:00,
2013-07-01 05:31:00,69.1,68.5,29.83,ENE,75,25.0,31.0,98,0.00,,,0.00,meteohub,2013-07-01 09:31:00,
2013-07-01 05:36:00,68.7,68.2,29.83,ENE,71,29.0,30.0,98,0.00,,,0.00,meteohub,2013-07-01 09:36:00,
2013-07-01 05:41:00,69.1,68.5,29.83,ENE,71,27.0,29.0,98,0.00,,,0.00,meteohub,2013-07-01 09:41:00,
2013-07-01 05:46:00,69.1,68.5,29.84,ENE,64,23.0,29.0,98,0.00,,,0.00,meteohub,2013-07-01 09:46:00,
2013-07-01 05:51:00,68.9,68.0,29.84,ENE,74,24.0,29.0,97,0.00,,,0.00,meteohub,2013-07-01 09:51:00,
2013-07-01 05:56:00,68.7,67.8,29.84,ENE,68,23.0,29.0,97,0.00,,,0.00,meteohub,2013-07-01 09:56:00,
2013-07-01 06:01:00,68.7,67.8,29.84,ENE,78,23.0,29.0,97,0.00,,,0.00,meteohub,2013-07-01 10:01:00,
2013-07-01 06:06:00,68.7,67.8,29.84,ENE,74,23.0,29.0,97,0.00,,,0.00,meteohub,2013-07-01 10:06:00,
2013-07-01 06:11:00,68.7,67.8,29.84,ENE,73,23.0,28.0,97,0.00,,,0.00,meteohub,2013-07-01 10:11:00,
2013-07-01 06:16:00,68.7,68.2,29.84,ENE,74,24.0,27.0,98,0.00,,,0.00,meteohub,2013-07-01 10:16:00,
2013-07-01 06:21:00,69.1,68.5,29.84,ENE,73,24.0,29.0,98,0.00,,,0.00,meteohub,2013-07-01 10:21:00,
2013-07-01 06:26:00,68.9,68.0,29.85,ENE,76,23.0,29.0,97,0.00,,,0.00,meteohub,2013-07-01 10:26:00,
2013-07-01 06:31:00,68.7,67.8,29.85,ENE,74,20.0,29.0,97,0.00,,,0.00,meteohub,2013-07-01 10:31:00,
2013-07-01 06:36:00,68.7,67.8,29.85,ENE,75,25.0,28.0,97,0.00,,,0.00,meteohub,2013-07-01 10:36:00,
2013-07-01 06:41:00,68.7,67.5,29.85,East,88,24.0,30.0,96,0.00,,,0.00,meteohub,2013-07-01 10:41:00,
2013-07-01 06:46:00,68.7,67.3,29.85,ENE,77,21.0,30.0,95,0.00,,,0.00,meteohub,2013-07-01 10:46:00,
2013-07-01 06:51:00,68.5,67.1,29.85,ENE,73,24.0,30.0,95,0.00,,,0.00,meteohub,2013-07-01 10:51:00,
2013-07-01 06:56:00,68.5,67.1,29.85,ENE,78,22.0,29.0,95,0.00,,,0.00,meteohub,2013-07-01 10:56:00,
2013-07-01 07:01:00,68.5,67.1,29.85,ENE,77,27.0,29.0,95,0.00,,,0.00,meteohub,2013-07-01 11:01:00,
2013-07-01 07:07:00,68.5,67.1,29.85,ENE,71,24.0,32.0,95,0.00,,,0.00,meteohub,2013-07-01 11:07:00,
2013-07-01 07:12:00,68.5,67.3,29.84,ENE,77,18.0,32.0,96,0.00,,,0.00,meteohub,2013-07-01 11:12:00,
2013-07-01 07:17:00,68.5,67.3,29.85,ENE,77,22.0,32.0,96,0.00,,,0.00,meteohub,2013-07-01 11:17:00,
2013-07-01 07:22:00,68.5,67.3,29.85,ENE,64,21.0,29.0,96,0.00,,,0.00,meteohub,2013-07-01 11:22:00,
2013-07-01 07:27:00,68.5,67.3,29.85,East,79,22.0,30.0,96,0.00,,,0.00,meteohub,2013-07-01 11:27:00,
2013-07-01 07:32:00,68.5,67.3,29.86,ENE,76,19.0,30.0,96,0.00,,,0.00,meteohub,2013-07-01 11:32:00,
2013-07-01 07:37:00,68.5,67.1,29.86,East,82,24.0,30.0,95,0.00,,,0.00,meteohub,2013-07-01 11:37:00,
2013-07-01 07:42:00,68.4,66.9,29.86,ENE,72,26.0,30.0,95,0.00,,,0.00,meteohub,2013-07-01 11:42:00,
2013-07-01 07:47:00,68.4,67.1,29.86,ENE,76,22.0,30.0,96,0.00,,,0.00,meteohub,2013-07-01 11:47:00,
2013-07-01 07:52:00,68.5,67.3,29.86,ENE,78,25.0,28.0,96,0.00,,,0.00,meteohub,2013-07-01 11:52:00,
2013-07-01 07:57:00,68.4,67.1,29.86,ENE,76,25.0,27.0,96,0.00,,,0.00,meteohub,2013-07-01 11:57:00,
2013-07-01 08:02:00,68.4,66.9,29.86,East,86,21.0,28.0,95,0.00,,,0.00,meteohub,2013-07-01 12:02:00,
2013-07-01 08:07:00,68.4,67.1,29.86,ENE,68,22.0,28.0,96,0.00,,,0.00,meteohub,2013-07-01 12:07:00,
2013-07-01 08:12:00,68.2,66.7,29.85,East,80,23.0,29.0,95,0.00,,,0.00,meteohub,2013-07-01 12:12:00,
2013-07-01 08:17:00,68.2,66.7,29.85,ENE,78,23.0,29.0,95,0.00,,,0.00,meteohub,2013-07-01 12:17:00,
2013-07-01 08:22:00,68.4,66.9,29.85,ENE,68,25.0,28.0,95,0.00,,,0.00,meteohub,2013-07-01 12:22:00,
2013-07-01 08:27:00,68.4,66.9,29.86,ENE,74,23.0,28.0,95,0.00,,,0.00,meteohub,2013-07-01 12:27:00,
2013-07-01 08:32:00,68.5,67.3,29.86,ENE,67,26.0,28.0,96,0.00,,,0.00,meteohub,2013-07-01 12:32:00,
2013-07-01 08:37:00,68.4,67.1,29.86,ENE,76,23.0,28.0,96,0.00,,,0.00,meteohub,2013-07-01 12:37:00,
2013-07-01 08:42:00,68.4,67.1,29.86,ENE,69,22.0,27.0,96,0.00,,,0.00,meteohub,2013-07-01 12:42:00,
2013-07-01 08:47:00,68.2,66.9,29.86,ENE,67,27.0,30.0,96,0.00,,,0.00,meteohub,2013-07-01 12:47:00,
2013-07-01 08:52:00,68.4,67.1,29.86,ENE,73,23.0,30.0,96,0.00,,,0.00,meteohub,2013-07-01 12:52:00,
2013-07-01 08:57:00,68.4,67.1,29.86,ENE,73,24.0,30.0,96,0.00,,,0.00,meteohub,2013-07-01 12:57:00,
2013-07-01 09:02:00,68.2,66.9,29.86,ENE,71,26.0,30.0,96,0.00,,,0.00,meteohub,2013-07-01 13:02:00,
2013-07-01 09:07:00,68.2,66.7,29.86,ENE,71,26.0,29.0,95,0.00,,,0.00,meteohub,2013-07-01 13:07:00,
2013-07-01 09:12:00,68.4,67.1,29.86,ENE,76,22.0,30.0,96,0.00,,,0.00,meteohub,2013-07-01 13:12:00,
2013-07-01 09:18:00,68.4,67.1,29.86,ENE,76,23.0,30.0,96,0.00,,,0.00,meteohub,2013-07-01 13:18:00,
2013-07-01 09:23:00,68.5,67.3,29.86,ENE,66,23.0,30.0,96,0.00,,,0.00,meteohub,2013-07-01 13:23:00,
2013-07-01 09:28:00,68.4,67.1,29.86,ENE,70,27.0,30.0,96,0.00,,,0.00,meteohub,2013-07-01 13:28:00,
2013-07-01 09:33:00,68.2,66.9,29.86,ENE,67,27.0,30.0,96,0.00,,,0.00,meteohub,2013-07-01 13:33:00,
2013-07-01 09:38:00,68.4,67.1,29.86,ENE,71,23.0,31.0,96,0.00,,,0.00,meteohub,2013-07-01 13:38:00,
2013-07-01 09:43:00,68.5,67.6,29.86,ENE,65,28.0,31.0,97,0.00,,,0.00,meteohub,2013-07-01 13:43:00,
2013-07-01 09:48:00,68.4,67.5,29.86,ENE,62,26.0,31.0,97,0.00,,,0.00,meteohub,2013-07-01 13:48:00,
2013-07-01 09:53:00,68.0,67.1,29.86,ENE,70,28.0,30.0,97,0.00,,,0.00,meteohub,2013-07-01 13:53:00,
2013-07-01 09:58:00,68.4,67.5,29.87,ENE,71,28.0,30.0,97,0.00,,,0.00,meteohub,2013-07-01 13:58:00,
2013-07-01 10:03:00,68.4,67.8,29.87,ENE,69,27.0,30.0,98,0.00,,,0.00,meteohub,2013-07-01 14:03:00,
2013-07-01 10:08:00,68.2,67.3,29.87,ENE,67,26.0,30.0,97,0.00,,,0.00,meteohub,2013-07-01 14:08:00,
2013-07-01 10:13:00,68.2,67.3,29.87,ENE,58,25.0,30.0,97,0.00,,,0.00,meteohub,2013-07-01 14:13:00,
2013-07-01 10:18:00,68.0,67.1,29.87,ENE,62,23.0,30.0,97,0.00,,,0.00,meteohub,2013-07-01 14:18:00,
2013-07-01 10:23:00,68.2,67.6,29.86,ENE,63,29.0,31.0,98,0.00,,,0.00,meteohub,2013-07-01 14:23:00,
2013-07-01 10:28:00,68.2,67.6,29.86,NE,54,26.0,31.0,98,0.00,,,0.00,meteohub,2013-07-01 14:28:00,
2013-07-01 10:33:00,67.8,67.3,29.87,ENE,69,27.0,31.0,98,0.00,,,0.00,meteohub,2013-07-01 14:33:00,
2013-07-01 10:38:00,67.8,67.3,29.86,ENE,71,25.0,32.0,98,0.00,,,0.00,meteohub,2013-07-01 14:38:00,
2013-07-01 10:43:00,67.8,67.3,29.87,ENE,71,28.0,32.0,98,0.00,,,0.00,meteohub,2013-07-01 14:43:00,
2013-07-01 10:49:00,67.8,67.3,29.87,NE,54,28.0,32.0,98,0.00,,,0.00,meteohub,2013-07-01 14:49:00,
2013-07-01 10:54:00,67.6,67.1,29.87,ENE,59,27.0,33.0,98,0.00,,,0.00,meteohub,2013-07-01 14:54:00,
2013-07-01 10:59:00,67.6,67.1,29.87,ENE,61,31.0,33.0,98,0.00,,,0.00,meteohub,2013-07-01 14:59:00,
2013-07-01 11:04:00,67.6,67.1,29.87,ENE,65,27.0,33.0,98,0.00,,,0.00,meteohub,2013-07-01 15:04:00,
2013-07-01 11:09:00,67.8,67.3,29.88,ENE,70,26.0,33.0,98,0.00,,,0.00,meteohub,2013-07-01 15:09:00,
2013-07-01 11:14:00,67.8,67.3,29.88,ENE,66,29.0,33.0,98,0.00,,,0.00,meteohub,2013-07-01 15:14:00,
2013-07-01 11:19:00,68.0,67.5,29.88,East,82,22.0,32.0,98,0.00,,,0.00,meteohub,2013-07-01 15:19:00,
2013-07-01 11:24:00,67.8,66.9,29.88,ENE,64,23.0,31.0,97,0.00,,,0.00,meteohub,2013-07-01 15:24:00,
2013-07-01 11:29:00,67.8,67.3,29.89,ENE,69,27.0,31.0,98,0.00,,,0.00,meteohub,2013-07-01 15:29:00,
2013-07-01 11:34:00,67.8,67.3,29.89,ENE,65,24.0,31.0,98,0.00,,,0.00,meteohub,2013-07-01 15:34:00,
2013-07-01 11:39:00,67.8,67.5,29.89,ENE,63,28.0,31.0,99,0.00,,,0.00,meteohub,2013-07-01 15:39:00,
2013-07-01 11:44:00,67.6,67.1,29.90,ENE,63,24.0,31.0,98,0.00,,,0.00,meteohub,2013-07-01 15:44:00,
2013-07-01 11:49:00,67.5,66.9,29.90,ENE,71,24.0,31.0,98,0.00,,,0.00,meteohub,2013-07-01 15:49:00,
2013-07-01 11:54:00,67.6,67.1,29.90,East,84,25.0,31.0,98,0.00,,,0.00,meteohub,2013-07-01 15:54:00,
2013-07-01 12:00:00,67.5,66.9,29.90,East,82,25.0,31.0,98,0.00,,,0.00,meteohub,2013-07-01 16:00:00,
2013-07-01 12:05:00,67.5,66.9,29.91,ENE,67,27.0,30.0,98,0.01,,,0.02,meteohub,2013-07-01 16:05:00,
2013-07-01 12:10:00,67.5,67.1,29.91,East,90,19.0,30.0,99,0.02,,,0.02,meteohub,2013-07-01 16:10:00,
2013-07-01 12:15:00,67.3,66.7,29.91,ENE,74,25.0,28.0,98,0.02,,,0.03,meteohub,2013-07-01 16:15:00,
2013-07-01 12:20:00,67.1,66.6,29.91,East,86,22.0,27.0,98,0.05,,,0.04,meteohub,2013-07-01 16:20:00,
2013-07-01 12:25:00,67.1,66.7,29.91,East,82,18.0,27.0,99,0.05,,,0.05,meteohub,2013-07-01 16:25:00,
2013-07-01 12:30:00,66.9,66.6,29.91,East,81,21.0,27.0,99,0.06,,,0.06,meteohub,2013-07-01 16:30:00,
2013-07-01 12:35:00,66.9,66.6,29.91,ENE,78,22.0,26.0,99,0.06,,,0.06,meteohub,2013-07-01 16:35:00,
2013-07-01 12:40:00,66.7,66.4,29.91,East,83,26.0,29.0,99,0.07,,,0.07,meteohub,2013-07-01 16:40:00,
2013-07-01 12:45:00,66.9,66.6,29.90,East,79,22.0,30.0,99,0.08,,,0.08,meteohub,2013-07-01 16:45:00,
2013-07-01 12:50:00,66.9,66.9,29.90,ENE,77,24.0,30.0,100,0.09,,,0.09,meteohub,2013-07-01 16:50:00,
2013-07-01 12:55:00,66.9,66.9,29.90,ENE,65,25.0,29.0,100,0.09,,,0.10,meteohub,2013-07-01 16:55:00,
2013-07-01 13:01:00,66.9,66.9,29.90,ENE,71,26.0,31.0,100,0.10,,,0.11,meteohub,2013-07-01 17:01:00,
2013-07-01 13:06:00,66.7,66.7,29.90,ENE,65,29.0,31.0,100,0.09,,,0.11,meteohub,2013-07-01 17:06:00,
2013-07-01 13:11:00,66.7,66.7,29.89,ENE,59,28.0,31.0,100,0.09,,,0.12,meteohub,2013-07-01 17:11:00,
2013-07-01 13:16:00,66.6,66.6,29.89,ENE,57,27.0,31.0,100,0.08,,,0.12,meteohub,2013-07-01 17:16:00,
2013-07-01 13:21:00,66.7,66.7,29.89,ENE,64,28.0,31.0,100,0.07,,,0.12,meteohub,2013-07-01 17:21:00,
2013-07-01 13:26:00,66.6,66.6,29.89,ENE,71,29.0,31.0,100,0.07,,,0.13,meteohub,2013-07-01 17:26:00,
2013-07-01 13:31:00,66.7,66.7,29.90,ENE,67,23.0,31.0,100,0.07,,,0.13,meteohub,2013-07-01 17:31:00,
2013-07-01 13:36:00,66.6,66.6,29.90,ENE,74,27.0,31.0,100,0.06,,,0.13,meteohub,2013-07-01 17:36:00,
2013-07-01 13:41:00,66.6,66.6,29.90,ENE,71,25.0,32.0,100,0.06,,,0.14,meteohub,2013-07-01 17:41:00,
2013-07-01 13:46:00,66.7,66.7,29.90,ENE,62,30.0,32.0,100,0.05,,,0.14,meteohub,2013-07-01 17:46:00,
2013-07-01 13:51:00,66.7,66.7,29.90,ENE,71,28.0,33.0,100,0.04,,,0.14,meteohub,2013-07-01 17:51:00,
2013-07-01 13:57:00,66.9,66.9,29.90,ENE,76,26.0,33.0,100,0.04,,,0.14,meteohub,2013-07-01 17:57:00,
2013-07-01 14:02:00,66.9,66.9,29.90,ENE,76,28.0,33.0,100,0.03,,,0.14,meteohub,2013-07-01 18:02:00,
2013-07-01 14:07:00,66.9,66.9,29.90,ENE,69,23.0,32.0,100,0.02,,,0.14,meteohub,2013-07-01 18:07:00,
2013-07-01 14:12:00,66.9,66.9,29.90,ENE,72,30.0,32.0,100,0.02,,,0.14,meteohub,2013-07-01 18:12:00,
2013-07-01 14:17:00,66.9,66.9,29.89,East,82,27.0,32.0,100,0.02,,,0.14,meteohub,2013-07-01 18:17:00,
2013-07-01 14:22:00,66.7,66.7,29.89,ENE,75,30.0,33.0,100,0.02,,,0.14,meteohub,2013-07-01 18:22:00,
2013-07-01 14:27:00,66.7,66.4,29.89,ENE,76,30.0,33.0,99,0.02,,,0.15,meteohub,2013-07-01 18:27:00,
2013-07-01 14:32:00,66.7,66.7,29.90,ENE,78,28.0,33.0,100,0.02,,,0.15,meteohub,2013-07-01 18:32:00,
2013-07-01 14:37:00,66.7,66.7,29.90,ENE,76,28.0,34.0,100,0.02,,,0.15,meteohub,2013-07-01 18:37:00,
2013-07-01 14:42:00,66.7,66.7,29.90,ENE,73,30.0,34.0,100,0.01,,,0.15,meteohub,2013-07-01 18:42:00,
2013-07-01 14:47:00,66.7,66.7,29.90,ENE,63,29.0,33.0,100,0.01,,,0.15,meteohub,2013-07-01 18:47:00,
2013-07-01 14:52:00,66.7,66.4,29.90,ENE,70,28.0,33.0,99,0.01,,,0.15,meteohub,2013-07-01 18:52:00,
2013-07-01 14:57:00,66.7,66.4,29.90,ENE,74,32.0,34.0,99,0.01,,,0.15,meteohub,2013-07-01 18:57:00,
2013-07-01 15:02:00,66.7,66.4,29.91,East,80,22.0,34.0,99,0.01,,,0.15,meteohub,2013-07-01 19:02:00,
2013-07-01 15:07:00,66.9,66.6,29.90,ENE,67,28.0,34.0,99,0.01,,,0.15,meteohub,2013-07-01 19:07:00,
2013-07-01 15:12:00,66.7,66.4,29.90,ENE,63,28.0,32.0,99,0.01,,,0.15,meteohub,2013-07-01 19:12:00,
2013-07-01 15:17:00,66.7,66.4,29.90,ENE,62,27.0,31.0,99,0.01,,,0.15,meteohub,2013-07-01 19:17:00,
2013-07-01 15:22:00,66.7,66.4,29.91,ENE,70,28.0,32.0,99,0.01,,,0.15,meteohub,2013-07-01 19:22:00,
2013-07-01 15:27:00,66.6,66.2,29.90,ENE,61,28.0,32.0,99,0.00,,,0.15,meteohub,2013-07-01 19:27:00,
2013-07-01 15:32:00,66.6,66.2,29.90,ENE,70,31.0,32.0,99,0.00,,,0.15,meteohub,2013-07-01 19:32:00,
2013-07-01 15:37:00,66.6,66.2,29.90,ENE,71,26.0,33.0,99,0.00,,,0.15,meteohub,2013-07-01 19:37:00,
2013-07-01 15:42:00,66.4,66.0,29.90,ENE,69,26.0,33.0,99,0.00,,,0.15,meteohub,2013-07-01 19:42:00,
2013-07-01 15:47:00,66.4,66.0,29.90,ENE,71,26.0,33.0,99,0.00,,,0.15,meteohub,2013-07-01 19:47:00,
2013-07-01 15:52:00,66.4,66.0,29.91,ENE,72,29.0,32.0,99,0.00,,,0.15,meteohub,2013-07-01 19:52:00,
2013-07-01 15:57:00,66.6,66.2,29.91,ENE,70,25.0,33.0,99,0.00,,,0.15,meteohub,2013-07-01 19:57:00,
2013-07-01 16:03:00,66.6,66.2,29.91,ENE,62,24.0,33.0,99,0.00,,,0.15,meteohub,2013-07-01 20:03:00,
2013-07-01 16:08:00,66.6,66.2,29.91,ENE,70,29.0,32.0,99,0.00,,,0.15,meteohub,2013-07-01 20:08:00,
2013-07-01 16:13:00,66.4,65.8,29.91,ENE,73,26.0,32.0,98,0.00,,,0.15,meteohub,2013-07-01 20:13:00,
2013-07-01 16:18:00,66.4,65.8,29.91,ENE,70,28.0,34.0,98,0.00,,,0.15,meteohub,2013-07-01 20:18:00,
2013-07-01 16:23:00,66.4,65.8,29.91,ENE,77,27.0,34.0,98,0.00,,,0.15,meteohub,2013-07-01 20:23:00,
2013-07-01 16:28:00,66.4,65.8,29.91,ENE,65,29.0,33.0,98,0.00,,,0.15,meteohub,2013-07-01 20:28:00,
2013-07-01 16:33:00,66.4,65.8,29.91,ENE,65,26.0,33.0,98,0.00,,,0.15,meteohub,2013-07-01 20:33:00,
2013-07-01 16:38:00,66.2,65.7,29.91,East,81,23.0,33.0,98,0.00,,,0.15,meteohub,2013-07-01 20:38:00,
2013-07-01 16:43:00,66.4,65.8,29.91,ENE,70,27.0,33.0,98,0.00,,,0.15,meteohub,2013-07-01 20:43:00,
2013-07-01 16:48:00,66.4,65.8,29.91,ENE,71,26.0,33.0,98,0.00,,,0.15,meteohub,2013-07-01 20:48:00,
2013-07-01 16:53:00,66.4,65.8,29.91,ENE,73,27.0,32.0,98,0.00,,,0.15,meteohub,2013-07-01 20:53:00,
2013-07-01 16:59:00,66.4,65.8,29.91,ENE,61,23.0,32.0,98,0.00,,,0.15,meteohub,2013-07-01 20:59:00,
2013-07-01 17:04:00,66.6,66.2,29.91,ENE,73,21.0,31.0,99,0.00,,,0.15,meteohub,2013-07-01 21:04:00,
2013-07-01 17:09:00,66.6,66.2,29.91,ENE,65,24.0,31.0,99,0.00,,,0.15,meteohub,2013-07-01 21:09:00,
2013-07-01 17:14:00,66.4,66.4,29.91,ENE,65,24.0,30.0,100,0.00,,,0.15,meteohub,2013-07-01 21:14:00,
2013-07-01 17:19:00,66.6,66.6,29.91,ENE,72,28.0,31.0,100,0.00,,,0.15,meteohub,2013-07-01 21:19:00,
2013-07-01 17:24:00,66.2,65.8,29.91,ENE,57,26.0,31.0,99,0.00,,,0.15,meteohub,2013-07-01 21:24:00,
2013-07-01 17:29:00,66.2,66.2,29.92,ENE,68,30.0,31.0,100,0.00,,,0.15,meteohub,2013-07-01 21:29:00,
2013-07-01 17:34:00,66.4,66.4,29.91,ENE,63,22.0,31.0,100,0.00,,,0.15,meteohub,2013-07-01 21:34:00,
2013-07-01 17:39:00,66.0,65.7,29.91,ENE,61,31.0,31.0,99,0.00,,,0.15,meteohub,2013-07-01 21:39:00,
2013-07-01 17:44:00,66.2,65.8,29.91,ENE,61,31.0,32.0,99,0.00,,,0.15,meteohub,2013-07-01 21:44:00,
2013-07-01 17:50:00,66.0,65.7,29.91,ENE,58,26.0,33.0,99,0.00,,,0.15,meteohub,2013-07-01 21:50:00,
2013-07-01 17:55:00,65.8,65.5,29.92,ENE,78,29.0,33.0,99,0.00,,,0.15,meteohub,2013-07-01 21:55:00,
2013-07-01 18:00:00,65.8,65.3,29.92,ENE,70,24.0,33.0,98,0.00,,,0.15,meteohub,2013-07-01 22:00:00,
2013-07-01 18:05:00,65.8,65.3,29.92,ENE,65,29.0,33.0,98,0.00,,,0.15,meteohub,2013-07-01 22:05:00,
2013-07-01 18:10:00,65.8,65.3,29.92,ENE,67,24.0,33.0,98,0.00,,,0.15,meteohub,2013-07-01 22:10:00,
2013-07-01 18:15:00,65.7,65.1,29.92,ENE,77,26.0,33.0,98,0.00,,,0.15,meteohub,2013-07-01 22:15:00,
2013-07-01 18:20:00,65.8,65.5,29.91,ENE,72,27.0,30.0,99,0.00,,,0.15,meteohub,2013-07-01 22:20:00,
2013-07-01 18:25:00,65.7,65.3,29.91,ENE,71,26.0,30.0,99,0.00,,,0.15,meteohub,2013-07-01 22:25:00,
2013-07-01 18:30:00,65.7,65.3,29.92,ENE,69,24.0,31.0,99,0.00,,,0.15,meteohub,2013-07-01 22:30:00,
2013-07-01 18:35:00,65.7,65.3,29.92,ENE,68,26.0,31.0,99,0.00,,,0.15,meteohub,2013-07-01 22:35:00,
2013-07-01 18:40:00,65.8,65.5,29.92,ENE,76,22.0,31.0,99,0.00,,,0.15,meteohub,2013-07-01 22:40:00,
2013-07-01 18:45:00,65.8,65.5,29.93,ENE,69,24.0,30.0,99,0.00,,,0.15,meteohub,2013-07-01 22:45:00,
2013-07-01 18:50:00,65.8,65.3,29.93,ENE,69,22.0,31.0,98,0.00,,,0.15,meteohub,2013-07-01 22:50:00,
2013-07-01 18:55:00,65.8,65.3,29.93,East,80,22.0,31.0,98,0.00,,,0.15,meteohub,2013-07-01 22:55:00,
2013-07-01 19:00:00,65.8,65.3,29.94,ENE,76,25.0,29.0,98,0.00,,,0.15,meteohub,2013-07-01 23:00:00,
2013-07-01 19:05:00,65.7,65.1,29.93,ENE,67,22.0,30.0,98,0.00,,,0.15,meteohub,2013-07-01 23:05:00,
2013-07-01 19:10:00,65.8,65.3,29.93,East,80,25.0,30.0,98,0.00,,,0.15,meteohub,2013-07-01 23:10:00,
2013-07-01 19:15:00,65.7,65.1,29.93,ENE,65,25.0,31.0,98,0.00,,,0.15,meteohub,2013-07-01 23:15:00,
2013-07-01 19:21:00,65.7,65.1,29.93,ENE,71,30.0,31.0,98,0.00,,,0.15,meteohub,2013-07-01 23:21:00,
2013-07-01 19:26:00,65.7,65.1,29.93,ENE,66,23.0,31.0,98,0.00,,,0.15,meteohub,2013-07-01 23:26:00,
2013-07-01 19:31:00,65.8,65.3,29.93,ENE,76,21.0,31.0,98,0.00,,,0.15,meteohub,2013-07-01 23:31:00,
2013-07-01 19:36:00,65.8,65.3,29.94,ENE,69,25.0,31.0,98,0.00,,,0.15,meteohub,2013-07-01 23:36:00,
2013-07-01 19:41:00,65.7,65.1,29.94,East,86,21.0,28.0,98,0.00,,,0.15,meteohub,2013-07-01 23:41:00,
2013-07-01 19:46:00,65.7,65.1,29.94,ENE,74,24.0,28.0,98,0.00,,,0.15,meteohub,2013-07-01 23:46:00,
2013-07-01 19:51:00,65.7,65.1,29.94,East,82,23.0,29.0,98,0.00,,,0.15,meteohub,2013-07-01 23:51:00,
2013-07-01 19:56:00,65.8,65.5,29.94,ENE,78,30.0,30.0,99,0.00,,,0.15,meteohub,2013-07-01 23:56:00,
2013-07-01 20:01:00,65.7,65.1,29.94,ENE,74,28.0,31.0,98,0.00,,,0.15,meteohub,2013-07-02 00:01:00,
2013-07-01 20:06:00,65.7,65.1,29.94,ENE,66,28.0,31.0,98,0.00,,,0.15,meteohub,2013-07-02 00:06:00,
2013-07-01 20:11:00,65.7,65.1,29.95,ENE,71,26.0,31.0,98,0.00,,,0.15,meteohub,2013-07-02 00:11:00,
2013-07-01 20:16:00,65.8,65.5,29.95,ENE,69,22.0,30.0,99,0.00,,,0.15,meteohub,2013-07-02 00:16:00,
2013-07-01 20:21:00,65.8,65.3,29.94,ENE,69,28.0,30.0,98,0.00,,,0.15,meteohub,2013-07-02 00:21:00,
2013-07-01 20:27:00,65.7,65.1,29.94,ENE,68,27.0,32.0,98,0.00,,,0.15,meteohub,2013-07-02 00:27:00,
2013-07-01 20:32:00,65.7,65.1,29.95,ENE,78,24.0,32.0,98,0.00,,,0.15,meteohub,2013-07-02 00:32:00,
2013-07-01 20:37:00,65.8,65.5,29.95,ENE,78,30.0,31.0,99,0.00,,,0.15,meteohub,2013-07-02 00:37:00,
2013-07-01 20:42:00,65.7,65.3,29.95,East,84,21.0,31.0,99,0.00,,,0.15,meteohub,2013-07-02 00:42:00,
2013-07-01 20:47:00,65.3,64.9,29.95,ENE,69,25.0,30.0,99,0.00,,,0.15,meteohub,2013-07-02 00:47:00,
2013-07-01 20:52:00,65.5,65.1,29.95,East,80,21.0,30.0,99,0.00,,,0.15,meteohub,2013-07-02 00:52:00,
2013-07-01 20:57:00,65.3,64.9,29.95,ENE,71,24.0,30.0,99,0.00,,,0.15,meteohub,2013-07-02 00:57:00,
2013-07-01 21:02:00,65.5,65.1,29.94,ENE,76,28.0,30.0,99,0.00,,,0.15,meteohub,2013-07-02 01:02:00,
2013-07-01 21:07:00,65.7,65.3,29.95,ENE,76,29.0,31.0,99,0.00,,,0.15,meteohub,2013-07-02 01:07:00,
2013-07-01 21:12:00,65.8,65.5,29.94,ENE,70,26.0,33.0,99,0.00,,,0.15,meteohub,2013-07-02 01:12:00,
2013-07-01 21:17:00,65.8,65.3,29.95,ENE,78,27.0,33.0,98,0.00,,,0.15,meteohub,2013-07-02 01:17:00,
2013-07-01 21:22:00,66.0,65.7,29.95,ENE,67,26.0,33.0,99,0.00,,,0.15,meteohub,2013-07-02 01:22:00,
2013-07-01 21:27:00,66.4,66.0,29.95,East,83,20.0,33.0,99,0.00,,,0.15,meteohub,2013-07-02 01:27:00,
2013-07-01 21:32:00,66.0,65.5,29.95,East,85,28.0,33.0,98,0.00,,,0.15,meteohub,2013-07-02 01:32:00,
2013-07-01 21:37:00,66.0,65.5,29.95,East,82,24.0,31.0,98,0.00,,,0.15,meteohub,2013-07-02 01:37:00,
2013-07-01 21:43:00,66.0,65.5,29.95,ENE,74,21.0,30.0,98,0.00,,,0.15,meteohub,2013-07-02 01:43:00,
2013-07-01 21:48:00,66.4,65.8,29.95,East,83,22.0,30.0,98,0.00,,,0.15,meteohub,2013-07-02 01:48:00,
2013-07-01 21:53:00,66.4,65.5,29.96,ENE,74,19.0,30.0,97,0.00,,,0.15,meteohub,2013-07-02 01:53:00,
2013-07-01 21:58:00,66.4,65.5,29.96,ENE,76,25.0,29.0,97,0.00,,,0.15,meteohub,2013-07-02 01:58:00,
2013-07-01 22:03:00,66.6,65.7,29.96,ENE,69,20.0,29.0,97,0.00,,,0.15,meteohub,2013-07-02 02:03:00,
2013-07-01 22:08:00,66.4,65.1,29.96,ENE,76,24.0,29.0,96,0.00,,,0.15,meteohub,2013-07-02 02:08:00,
2013-07-01 22:13:00,66.6,65.7,29.96,ENE,67,26.0,29.0,97,0.00,,,0.15,meteohub,2013-07-02 02:13:00,
2013-07-01 22:18:00,66.6,65.3,29.96,ENE,74,26.0,30.0,96,0.00,,,0.15,meteohub,2013-07-02 02:18:00,
2013-07-01 22:23:00,66.4,65.1,29.96,ENE,73,28.0,31.0,96,0.00,,,0.15,meteohub,2013-07-02 02:23:00,
2013-07-01 22:28:00,66.2,65.3,29.96,ENE,74,26.0,31.0,97,0.00,,,0.15,meteohub,2013-07-02 02:28:00,
2013-07-01 22:33:00,65.8,64.6,29.97,ENE,74,25.0,31.0,96,0.00,,,0.15,meteohub,2013-07-02 02:33:00,
2013-07-01 22:38:00,65.8,64.9,29.96,East,82,24.0,30.0,97,0.00,,,0.15,meteohub,2013-07-02 02:38:00,
2013-07-01 22:43:00,65.7,64.8,29.96,ENE,76,24.0,31.0,97,0.00,,,0.15,meteohub,2013-07-02 02:43:00,
2013-07-01 22:48:00,65.5,64.9,29.96,ENE,73,22.0,31.0,98,0.00,,,0.15,meteohub,2013-07-02 02:48:00,
2013-07-01 22:53:00,65.3,64.8,29.96,East,80,22.0,31.0,98,0.00,,,0.15,meteohub,2013-07-02 02:53:00,
2013-07-01 22:59:00,65.1,64.6,29.97,ENE,75,23.0,31.0,98,0.00,,,0.15,meteohub,2013-07-02 02:59:00,
2013-07-01 23:04:00,65.1,64.6,29.97,ENE,77,21.0,29.0,98,0.00,,,0.15,meteohub,2013-07-02 03:04:00,
2013-07-01 23:09:00,64.9,64.4,29.96,ENE,69,27.0,29.0,98,0.00,,,0.15,meteohub,2013-07-02 03:09:00,
2013-07-01 23:14:00,64.8,64.2,29.96,ENE,72,26.0,28.0,98,0.00,,,0.15,meteohub,2013-07-02 03:14:00,
2013-07-01 23:19:00,64.9,64.4,29.96,ENE,71,26.0,30.0,98,0.00,,,0.15,meteohub,2013-07-02 03:19:00,
2013-07-01 23:24:00,64.9,64.4,29.96,ENE,77,25.0,30.0,98,0.00,,,0.15,meteohub,2013-07-02 03:24:00,
2013-07-01 23:29:00,64.8,64.4,29.96,ENE,63,28.0,30.0,99,0.00,,,0.15,meteohub,2013-07-02 03:29:00,
2013-07-01 23:34:00,64.6,64.2,29.96,East,80,22.0,30.0,99,0.00,,,0.15,meteohub,2013-07-02 03:34:00,
2013-07-01 23:39:00,64.8,64.4,29.96,ENE,76,23.0,30.0,99,0.00,,,0.15,meteohub,2013-07-02 03:39:00,
2013-07-01 23:44:00,64.2,63.9,29.96,East,82,20.0,28.0,99,0.00,,,0.15,meteohub,2013-07-02 03:44:00,
2013-07-01 23:49:00,64.2,63.9,29.96,ENE,77,24.0,28.0,99,0.00,,,0.15,meteohub,2013-07-02 03:49:00,
2013-07-01 23:54:00,64.0,63.7,29.96,ENE,73,25.0,28.0,99,0.00,,,0.15,meteohub,2013-07-02 03:54:00,
2013-07-01 23:59:00,63.7,63.7,29.96,ENE,71,23.0,28.0,100,0.00,,,0.15,meteohub,2013-07-02 03:59:00,